Dayton, Maine
Current Conditions -  °F | °C
As of 8:15 PM on Wednesday 24 Dec 2014 (Local Time) from KSFM Reporting Station
Overcast Overcast  
Wind Chill: 31°   Ceiling: 500
Heat Index: 36°   Visibility: 4mi
Dew Point: 34°   Wind: 6mph
Humidity: 93%   Direction: 360°N
Pressure: 29.72"   Gusts: NA
Location:  43.4906°N, 70.5283°W
Report Text: KSFM 250115Z AUTO 36005KT 4SM OVC005 02/01 A2972 RMK AO1 P0006
Loading
Personal Weather Stations






























Interactive Weather Map New forecast layout! Learn more

10-Day Weather Forecast

Advertisements
Track Severe Weather on mobile